Time;durP1;ratioP1;P1;durP2;ratioP2;P2;SDS_P1;SDS_P2;PMS_P1;PMS_P2;Temp;Humidity;BMP_temperature;BMP_pressure;BME280_temperature;BME280_humidity;BME280_pressure;Samples;Min_cycle;Max_cycle;Signal;HPM_P1;HPM_P2
2022/03/12 00:01:45;;;;;;;11.73;10.17;;;;;;;0.82;78.72;100598.66;5050492;28;20200;-69
2022/03/12 00:04:13;;;;;;;11.20;9.67;;;;;;;0.83;79.53;100595.34;5049253;28;20212;-69
2022/03/12 00:06:40;;;;;;;11.63;8.73;;;;;;;0.83;79.21;100594.47;5048512;28;20197;-69
2022/03/12 00:09:07;;;;;;;10.40;9.40;;;;;;;0.74;78.08;100600.13;5057059;28;20247;-69
2022/03/12 00:11:46;;;;;;;12.47;10.27;;;;;;;0.68;78.02;100599.94;5048644;28;20747;-68
2022/03/12 00:14:15;;;;;;;11.70;9.73;;;;;;;0.47;79.41;100571.56;5066788;28;20211;-69
2022/03/12 00:16:43;;;;;;;8.40;7.67;;;;;;;0.50;80.38;100589.31;5058398;28;20736;-69
2022/03/12 00:19:10;;;;;;;10.27;7.60;;;;;;;0.51;81.54;100596.09;5049941;28;20201;-69
2022/03/12 00:21:42;;;;;;;8.80;6.93;;;;;;;0.47;83.03;100599.31;5059682;28;20703;-68
2022/03/12 00:24:13;;;;;;;8.67;7.83;;;;;;;0.41;83.83;100589.06;5057624;28;20227;-69
2022/03/12 00:26:42;;;;;;;10.37;6.97;;;;;;;0.45;85.00;100599.25;5061181;28;20204;-68
2022/03/12 00:29:14;;;;;;;7.80;7.07;;;;;;;0.40;85.78;100602.47;5052948;28;20259;-69
2022/03/12 00:31:42;;;;;;;10.20;8.73;;;;;;;0.17;86.96;100590.84;5062561;28;20251;-68
2022/03/12 00:34:09;;;;;;;18.50;12.57;;;;;;;-0.11;87.52;100582.44;5062527;28;20195;-68
2022/03/12 00:36:36;;;;;;;15.87;12.37;;;;;;;-0.06;88.21;100597.69;5053613;28;20196;-69
2022/03/12 00:39:04;;;;;;;15.87;11.40;;;;;;;-0.13;87.94;100593.28;5063433;28;20318;-68
2022/03/12 00:41:31;;;;;;;12.87;9.30;;;;;;;-0.18;87.54;100602.34;5050441;28;20193;-69
2022/03/12 00:43:59;;;;;;;10.93;8.97;;;;;;;-0.21;88.08;100598.06;5054056;28;20215;-68
2022/03/12 00:46:27;;;;;;;8.53;7.77;;;;;;;-0.31;88.63;100602.75;5050247;28;20197;-69
2022/03/12 00:48:54;;;;;;;7.07;6.37;;;;;;;-0.48;89.24;100601.38;5050127;28;20197;-68
2022/03/12 00:51:20;;;;;;;7.50;6.80;;;;;;;-0.77;91.77;100601.22;5050385;28;20281;-69
2022/03/12 00:53:47;;;;;;;7.37;6.03;;;;;;;-0.71;93.66;100600.59;5054470;28;20196;-68
2022/03/12 00:56:14;;;;;;;6.10;5.60;;;;;;;-0.74;95.40;100605.50;5062575;28;20224;-69
2022/03/12 00:58:45;;;;;;;6.63;6.13;;;;;;;-1.02;99.78;100607.88;5050319;28;20193;-69
2022/03/12 01:01:17;;;;;;;6.87;6.47;;;;;;;-1.41;100.00;100608.16;5050000;28;20207;-69
2022/03/12 01:03:44;;;;;;;7.57;6.93;;;;;;;-1.54;100.00;100595.06;5050136;28;20208;-69
2022/03/12 01:06:18;;;;;;;9.57;8.37;;;;;;;-1.74;100.00;100586.78;5052147;28;20688;-69
2022/03/12 01:08:46;;;;;;;13.67;8.97;;;;;;;-1.78;100.00;100595.91;5064737;28;20206;-69
2022/03/12 01:11:13;;;;;;;8.03;7.37;;;;;;;-2.00;100.00;100579.94;5061725;28;20204;-69
2022/03/12 01:13:41;;;;;;;12.23;8.53;;;;;;;-1.94;100.00;100600.28;5064020;28;20199;-69
2022/03/12 01:16:09;;;;;;;8.97;8.27;;;;;;;-2.02;100.00;100604.13;5073253;28;20694;-68
2022/03/12 01:18:40;;;;;;;8.20;7.50;;;;;;;-2.03;100.00;100605.78;5067003;28;20200;-69
2022/03/12 01:21:09;;;;;;;8.50;7.57;;;;;;;-2.01;100.00;100603.34;5068696;28;20254;-69
2022/03/12 01:23:36;;;;;;;6.33;5.50;;;;;;;-2.03;100.00;100610.78;5069393;28;20201;-69
2022/03/12 01:26:03;;;;;;;8.97;7.70;;;;;;;-2.08;100.00;100603.88;5061164;28;20224;-68
2022/03/12 01:28:30;;;;;;;7.53;6.83;;;;;;;-2.07;100.00;100613.16;5053390;28;20203;-69
2022/03/12 01:30:58;;;;;;;10.67;7.27;;;;;;;-2.13;100.00;100602.03;5057747;28;20200;-69
2022/03/12 01:33:25;;;;;;;7.47;6.87;;;;;;;-2.12;100.00;100608.78;5053171;28;20557;-68
2022/03/12 01:35:53;;;;;;;7.67;7.00;;;;;;;-2.18;100.00;100611.06;5053205;28;20193;-69
2022/03/12 01:38:30;;;;;;;7.20;6.73;;;;;;;-2.34;100.00;100608.75;5053349;28;20205;-69
2022/03/12 01:41:03;;;;;;;8.53;7.53;;;;;;;-2.42;100.00;100621.78;5053746;28;20204;-68
2022/03/12 01:43:32;;;;;;;8.10;7.27;;;;;;;-2.30;100.00;100617.25;5054996;28;20239;-68
2022/03/12 01:46:01;;;;;;;8.33;7.53;;;;;;;-2.34;100.00;100612.91;5062611;28;20595;-68
2022/03/12 01:48:30;;;;;;;6.17;5.40;;;;;;;-2.85;100.00;100544.72;5069152;28;20550;-69
2022/03/12 01:50:59;;;;;;;7.17;6.50;;;;;;;-2.45;100.00;100612.44;5063936;28;20208;-68
2022/03/12 01:53:27;;;;;;;7.13;6.63;;;;;;;-2.58;100.00;100615.25;5071726;28;20295;-69
2022/03/12 01:55:55;;;;;;;7.33;6.83;;;;;;;-2.48;100.00;100617.34;5064391;28;20196;-68
2022/03/12 01:58:24;;;;;;;8.33;7.50;;;;;;;-2.50;100.00;100623.97;5064729;28;20210;-68
2022/03/12 02:00:53;;;;;;;6.20;5.73;;;;;;;-2.51;100.00;100618.88;5060384;28;20232;-68
2022/03/12 02:03:23;;;;;;;6.47;5.93;;;;;;;-2.63;100.00;100600.81;5072922;28;20200;-68
2022/03/12 02:05:51;;;;;;;6.57;6.07;;;;;;;-2.56;100.00;100623.72;5073091;28;20222;-68
2022/03/12 02:08:19;;;;;;;6.90;6.30;;;;;;;-2.52;100.00;100619.69;5060569;28;20205;-68
2022/03/12 02:10:49;;;;;;;7.90;7.30;;;;;;;-2.67;100.00;100619.88;5058684;28;20203;-68
2022/03/12 02:13:16;;;;;;;8.73;7.57;;;;;;;-2.69;100.00;100606.44;5067200;28;20193;-68
2022/03/12 02:15:44;;;;;;;8.77;7.33;;;;;;;-2.65;100.00;100618.31;5064825;28;20194;-68
2022/03/12 02:18:14;;;;;;;7.87;6.73;;;;;;;-2.69;100.00;100608.94;5054910;28;20304;-68
2022/03/12 02:20:41;;;;;;;7.70;6.90;;;;;;;-2.61;100.00;100625.16;5060862;28;20202;-68
2022/03/12 02:23:09;;;;;;;8.23;6.93;;;;;;;-2.69;100.00;100612.31;5064711;28;20207;-68
2022/03/12 02:25:37;;;;;;;8.60;7.73;;;;;;;-2.69;100.00;100621.50;5067970;28;20208;-68
2022/03/12 02:28:16;;;;;;;7.30;6.80;;;;;;;-2.60;100.00;100616.00;5060019;28;20204;-68
2022/03/12 02:30:51;;;;;;;7.63;7.03;;;;;;;-2.56;100.00;100623.72;5060640;28;20207;-68
2022/03/12 02:33:28;;;;;;;6.90;6.33;;;;;;;-2.66;100.00;100627.50;5063396;28;20204;-68
2022/03/12 02:35:57;;;;;;;9.60;6.77;;;;;;;-2.55;100.00;100627.94;5064780;28;20211;-68
2022/03/12 02:38:28;;;;;;;8.17;7.40;;;;;;;-2.58;100.00;100620.28;5072198;28;20247;-68
2022/03/12 02:41:10;;;;;;;10.23;8.43;;;;;;;-2.48;100.00;100629.91;5059494;28;20279;-68
2022/03/12 02:43:43;;;;;;;13.97;7.67;;;;;;;-2.40;100.00;100626.06;5052277;28;20569;-68
2022/03/12 02:46:10;;;;;;;9.20;8.27;;;;;;;-2.41;100.00;100629.38;5069283;28;20219;-68
2022/03/12 02:48:38;;;;;;;9.77;8.17;;;;;;;-2.40;100.00;100628.56;5067680;28;20695;-68
2022/03/12 02:51:06;;;;;;;10.77;9.53;;;;;;;-2.31;100.00;100636.47;5052072;28;20201;-68
2022/03/12 02:53:33;;;;;;;10.43;9.33;;;;;;;-2.26;100.00;100614.06;5052382;28;20200;-68
2022/03/12 02:56:01;;;;;;;12.43;8.30;;;;;;;-2.18;100.00;100615.22;5058655;28;20196;-68
2022/03/12 02:58:28;;;;;;;9.80;8.80;;;;;;;-1.98;100.00;100631.09;5060788;28;20204;-68
2022/03/12 03:00:56;;;;;;;9.33;8.43;;;;;;;-1.95;100.00;100636.22;5051759;28;20645;-68
2022/03/12 03:03:23;;;;;;;8.87;7.70;;;;;;;-2.19;100.00;100621.91;5053628;28;20228;-68
2022/03/12 03:05:51;;;;;;;12.30;8.83;;;;;;;-2.22;100.00;100646.91;5071420;28;20593;-68
2022/03/12 03:08:20;;;;;;;12.83;8.20;;;;;;;-2.28;100.00;100645.78;5070761;28;20224;-68
2022/03/12 03:10:48;;;;;;;14.33;9.03;;;;;;;-2.31;100.00;100645.66;5051632;28;20201;-68
2022/03/12 03:13:35;;;;;;;8.57;7.60;;;;;;;-2.35;100.00;100642.16;5051411;28;20276;-68
2022/03/12 03:16:06;;;;;;;9.70;8.30;;;;;;;-2.17;100.00;100634.53;5060161;28;20291;-68
2022/03/12 03:18:38;;;;;;;11.23;7.60;;;;;;;-2.07;100.00;100635.75;5062943;28;20770;-68
2022/03/12 03:21:08;;;;;;;12.80;8.53;;;;;;;-2.11;100.00;100617.19;5062905;28;20204;-68
2022/03/12 03:23:35;;;;;;;11.10;9.27;;;;;;;-1.88;100.00;100643.22;5069085;28;20306;-68
2022/03/12 03:26:03;;;;;;;17.20;12.37;;;;;;;-1.81;100.00;100646.00;5058291;28;20212;-68
2022/03/12 03:28:30;;;;;;;20.67;14.07;;;;;;;-1.72;100.00;100646.41;5060802;28;20196;-68
2022/03/12 03:30:58;;;;;;;31.33;15.30;;;;;;;-1.75;100.00;100635.38;5070859;28;20199;-68
2022/03/12 03:33:27;;;;;;;57.10;28.73;;;;;;;-1.57;100.00;100646.09;5062369;28;20288;-68
2022/03/12 03:35:54;;;;;;;71.60;34.53;;;;;;;-1.54;100.00;100651.25;5050878;28;20193;-68
2022/03/12 03:38:22;;;;;;;44.03;25.40;;;;;;;-1.51;100.00;100651.38;5070061;28;20320;-68
2022/03/12 03:40:49;;;;;;;33.63;21.97;;;;;;;-1.48;100.00;100646.44;5055032;28;20204;-68
2022/03/12 03:43:19;;;;;;;36.27;21.57;;;;;;;-1.46;100.00;100649.91;5070770;28;20210;-68
2022/03/12 03:45:47;;;;;;;30.73;17.67;;;;;;;-1.42;100.00;100646.69;5067965;28;20212;-68
2022/03/12 03:48:17;;;;;;;22.73;14.33;;;;;;;-1.40;100.00;100649.25;5050732;28;20577;-68
2022/03/12 03:50:45;;;;;;;25.67;15.27;;;;;;;-1.35;100.00;100652.78;5069888;28;20196;-68
2022/03/12 03:53:15;;;;;;;24.13;15.43;;;;;;;-1.42;100.00;100641.66;5070672;28;20246;-68
2022/03/12 03:55:42;;;;;;;21.13;13.83;;;;;;;-1.33;100.00;100657.09;5062503;28;20192;-68
2022/03/12 03:58:12;;;;;;;20.13;12.90;;;;;;;-1.44;100.00;100658.34;5068518;28;20200;-68
2022/03/12 04:00:39;;;;;;;21.03;11.90;;;;;;;-1.59;100.00;100647.72;5058915;28;20204;-68
2022/03/12 04:03:06;;;;;;;19.00;12.40;;;;;;;-1.61;100.00;100665.25;5068608;28;20192;-68
2022/03/12 04:05:37;;;;;;;32.93;14.23;;;;;;;-1.67;100.00;100667.53;5066155;28;20208;-68
2022/03/12 04:08:06;;;;;;;53.37;17.63;;;;;;;-1.68;100.00;100664.97;5050100;28;20200;-68
2022/03/12 04:10:34;;;;;;;35.70;15.63;;;;;;;-1.69;100.00;100670.78;5050458;28;20219;-68
2022/03/12 04:13:01;;;;;;;26.57;11.80;;;;;;;-1.70;100.00;100677.47;5050808;28;20209;-68
2022/03/12 04:15:28;;;;;;;11.63;9.30;;;;;;;-1.68;100.00;100677.53;5058360;28;20228;-68
2022/03/12 04:17:57;;;;;;;12.93;8.90;;;;;;;-1.67;100.00;100684.25;5062232;28;20721;-68
2022/03/12 04:20:24;;;;;;;16.70;9.73;;;;;;;-1.68;100.00;100675.03;5060040;28;20692;-68
2022/03/12 04:22:52;;;;;;;14.70;9.30;;;;;;;-1.66;100.00;100683.47;5055206;28;20200;-68
2022/03/12 04:25:21;;;;;;;12.43;10.57;;;;;;;-1.67;100.00;100686.78;5048088;28;20244;-68
2022/03/12 04:27:49;;;;;;;25.87;15.30;;;;;;;-1.83;100.00;100666.88;5065558;28;20238;-68
2022/03/12 04:30:18;;;;;;;13.37;10.77;;;;;;;-1.71;100.00;100692.47;5068740;28;20214;-67
2022/03/12 04:32:45;;;;;;;15.40;10.97;;;;;;;-1.72;100.00;100694.16;5069786;28;20203;-68
2022/03/12 04:35:13;;;;;;;19.87;13.47;;;;;;;-1.74;100.00;100689.84;5058110;28;20195;-68
2022/03/12 04:37:40;;;;;;;29.67;17.40;;;;;;;-1.78;100.00;100683.00;5058674;28;20205;-68
2022/03/12 04:40:13;;;;;;;39.77;19.70;;;;;;;-1.75;100.00;100695.69;5052319;28;20208;-68
2022/03/12 04:42:43;;;;;;;46.77;22.90;;;;;;;-1.86;100.00;100687.72;5069599;28;20235;-68
2022/03/12 04:45:11;;;;;;;50.87;26.73;;;;;;;-1.76;100.00;100714.94;5071669;28;20208;-68
2022/03/12 04:47:41;;;;;;;52.43;22.53;;;;;;;-1.93;100.00;100699.97;5069169;28;20196;-68
2022/03/12 04:50:09;;;;;;;44.30;22.70;;;;;;;-1.83;100.00;100719.63;5074136;28;20634;-68
2022/03/12 04:52:36;;;;;;;37.13;22.20;;;;;;;-1.99;100.00;100694.69;5074116;28;20305;-68
2022/03/12 04:55:11;;;;;;;31.57;18.43;;;;;;;-1.88;100.00;100718.63;5074226;28;20577;-68
2022/03/12 04:57:39;;;;;;;15.73;10.37;;;;;;;-2.00;100.00;100718.13;5068222;28;20612;-68
2022/03/12 05:00:07;;;;;;;16.30;11.43;;;;;;;-2.00;100.00;100723.16;5055567;28;20236;-68
2022/03/12 05:02:34;;;;;;;24.97;16.63;;;;;;;-2.03;100.00;100720.47;5073988;28;20196;-68
2022/03/12 05:05:01;;;;;;;27.13;15.67;;;;;;;-2.12;100.00;100719.31;5073417;28;20278;-70
2022/03/12 05:07:28;;;;;;;24.97;14.10;;;;;;;-2.14;100.00;100713.38;5062308;28;20284;-68
2022/03/12 05:09:57;;;;;;;24.60;16.13;;;;;;;-2.19;100.00;100713.97;5056349;28;20580;-68
2022/03/12 05:12:25;;;;;;;21.97;13.77;;;;;;;-2.22;100.00;100694.63;5063015;28;20656;-69
2022/03/12 05:14:53;;;;;;;17.60;11.50;;;;;;;-2.13;100.00;100707.53;5061327;28;20212;-68
2022/03/12 05:17:26;;;;;;;15.67;9.30;;;;;;;-2.14;100.00;100713.38;5054578;28;20231;-68
2022/03/12 05:19:53;;;;;;;10.40;8.93;;;;;;;-2.10;100.00;100716.03;5059686;28;20631;-68
2022/03/12 05:22:20;;;;;;;9.80;8.57;;;;;;;-2.12;100.00;100716.81;5065489;28;20205;-68
2022/03/12 05:24:47;;;;;;;10.73;8.17;;;;;;;-2.16;100.00;100724.16;5062387;28;20657;-68
2022/03/12 05:27:17;;;;;;;13.67;11.97;;;;;;;-2.12;100.00;100729.38;5053418;28;20220;-69
2022/03/12 05:29:47;;;;;;;11.80;8.60;;;;;;;-2.17;100.00;100735.88;5058578;28;20579;-68
2022/03/12 05:32:15;;;;;;;11.13;7.47;;;;;;;-2.17;100.00;100732.50;5060451;28;20712;-68
2022/03/12 05:34:42;;;;;;;7.83;7.07;;;;;;;-2.23;100.00;100723.03;5058081;28;20668;-68
2022/03/12 05:37:09;;;;;;;8.57;7.70;;;;;;;-2.32;100.00;100715.13;5073614;28;20215;-69
2022/03/12 05:39:36;;;;;;;9.77;7.27;;;;;;;-2.23;100.00;100730.56;5073412;28;20200;-69
2022/03/12 05:42:05;;;;;;;8.17;7.40;;;;;;;-2.27;100.00;100716.19;5073108;28;20250;-68
2022/03/12 05:44:34;;;;;;;14.60;11.13;;;;;;;-2.09;100.00;100723.59;5054156;28;20216;-69
2022/03/12 05:47:02;;;;;;;21.87;14.33;;;;;;;-1.99;100.00;100722.34;5067373;28;20704;-68
2022/03/12 05:49:29;;;;;;;15.53;11.43;;;;;;;-1.82;100.00;100728.91;5073171;28;20202;-69
2022/03/12 05:51:58;;;;;;;9.43;8.53;;;;;;;-1.70;100.00;100734.41;5071749;28;20203;-68
2022/03/12 05:54:25;;;;;;;10.97;9.80;;;;;;;-1.56;100.00;100720.75;5053065;28;20201;-68
2022/03/12 05:56:51;;;;;;;10.17;8.43;;;;;;;-1.42;100.00;100732.19;5052747;28;20220;-68
2022/03/12 05:59:18;;;;;;;8.43;7.60;;;;;;;-1.31;100.00;100735.97;5053027;28;20208;-68
2022/03/12 06:01:45;;;;;;;8.10;7.27;;;;;;;-1.18;100.00;100735.66;5056906;28;20205;-68
2022/03/12 06:04:22;;;;;;;7.93;7.20;;;;;;;-1.02;100.00;100732.06;5057449;28;20208;-68
2022/03/12 06:06:49;;;;;;;8.23;7.57;;;;;;;-0.85;100.00;100722.59;5056603;28;20278;-68
2022/03/12 06:09:16;;;;;;;8.60;7.80;;;;;;;-0.63;100.00;100742.72;5057994;28;20200;-69
2022/03/12 06:11:43;;;;;;;8.83;8.03;;;;;;;-0.52;100.00;100743.97;5056020;28;20197;-69
2022/03/12 06:14:15;;;;;;;7.17;6.57;;;;;;;-0.40;100.00;100741.00;5057055;28;20243;-69
2022/03/12 06:16:48;;;;;;;8.90;8.00;;;;;;;-0.19;100.00;100750.16;5054359;28;20204;-69
2022/03/12 06:19:19;;;;;;;7.93;7.17;;;;;;;0.02;100.00;100766.84;5061904;28;20255;-69
2022/03/12 06:21:46;;;;;;;7.93;7.27;;;;;;;0.14;100.00;100772.28;5062935;28;20578;-69
2022/03/12 06:24:14;;;;;;;7.13;6.63;;;;;;;0.15;99.89;100777.38;5066569;28;20199;-69
2022/03/12 06:26:44;;;;;;;8.03;7.33;;;;;;;0.18;99.06;100787.56;5069088;28;20587;-70
2022/03/12 06:29:13;;;;;;;7.07;6.57;;;;;;;0.22;96.52;100778.44;5066347;28;20204;-71
2022/03/12 06:31:42;;;;;;;7.83;7.33;;;;;;;0.19;95.88;100768.25;5071228;28;20200;-71
2022/03/12 06:34:12;;;;;;;8.60;7.90;;;;;;;0.39;94.68;100788.25;5063284;28;20208;-71
2022/03/12 06:36:44;;;;;;;8.20;7.50;;;;;;;0.41;94.75;100793.38;5061972;28;20188;-72
2022/03/12 06:39:11;;;;;;;7.80;7.10;;;;;;;0.47;95.06;100796.09;5071869;28;20195;-72
2022/03/12 06:41:43;;;;;;;12.00;7.27;;;;;;;0.62;95.63;100791.53;5056875;28;20204;-72
2022/03/12 06:44:11;;;;;;;8.20;7.33;;;;;;;0.69;95.20;100788.41;5073105;28;20273;-67
2022/03/12 06:46:40;;;;;;;7.97;6.80;;;;;;;0.77;94.01;100807.19;5072979;28;20224;-67
2022/03/12 06:49:07;;;;;;;9.00;7.13;;;;;;;0.84;94.09;100811.59;5072951;28;20200;-67
2022/03/12 06:51:34;;;;;;;8.67;7.20;;;;;;;0.97;93.35;100810.31;5072973;28;20307;-67
2022/03/12 06:54:04;;;;;;;8.23;7.43;;;;;;;1.13;92.55;100811.66;5072861;28;20243;-68
2022/03/12 06:56:34;;;;;;;8.20;7.50;;;;;;;1.17;91.31;100819.34;5066662;28;20315;-67
2022/03/12 06:59:01;;;;;;;9.23;8.33;;;;;;;1.23;92.49;100819.50;5052801;28;20203;-67
2022/03/12 07:01:28;;;;;;;8.97;8.03;;;;;;;1.32;92.26;100819.81;5052918;28;20211;-67
2022/03/12 07:03:55;;;;;;;10.37;8.17;;;;;;;1.28;91.60;100824.72;5043016;28;20704;-67
2022/03/12 07:06:22;;;;;;;7.57;6.97;;;;;;;0.81;91.55;100798.88;5032563;28;20225;-67
2022/03/12 07:08:49;;;;;;;9.37;7.57;;;;;;;1.01;94.20;100810.44;5032732;28;20212;-68
2022/03/12 07:11:20;;;;;;;8.47;7.87;;;;;;;1.11;93.17;100793.91;5051239;28;20205;-68
2022/03/12 07:13:47;;;;;;;8.03;7.33;;;;;;;1.29;92.04;100813.81;5052598;28;20596;-68
2022/03/12 07:16:14;;;;;;;11.73;9.10;;;;;;;1.31;92.78;100792.81;5050904;28;20575;-67
2022/03/12 07:18:41;;;;;;;10.70;8.97;;;;;;;1.41;93.04;100806.59;5052381;28;20204;-67
2022/03/12 07:21:08;;;;;;;10.67;9.57;;;;;;;1.55;91.17;100820.47;5052266;28;20748;-68
2022/03/12 07:23:35;;;;;;;8.27;7.50;;;;;;;1.53;90.95;100819.56;5052336;28;20291;-68
2022/03/12 07:26:02;;;;;;;13.07;9.63;;;;;;;1.60;92.39;100826.50;5044825;28;20756;-68
2022/03/12 07:28:32;;;;;;;11.77;8.37;;;;;;;1.68;91.06;100830.09;5037594;28;20200;-68
2022/03/12 07:30:59;;;;;;;9.03;8.20;;;;;;;1.68;91.06;100825.03;5052316;28;20211;-68
2022/03/12 07:33:26;;;;;;;8.17;7.57;;;;;;;1.87;89.20;100839.94;5052126;28;20213;-68
2022/03/12 07:35:53;;;;;;;9.87;8.67;;;;;;;1.88;88.75;100825.59;5037034;28;20688;-69
2022/03/12 07:38:20;;;;;;;10.07;8.17;;;;;;;2.05;88.22;100837.03;5032241;28;20206;-69
2022/03/12 07:40:47;;;;;;;9.30;7.87;;;;;;;2.19;88.38;100845.00;5033865;28;20205;-69
2022/03/12 07:43:14;;;;;;;8.50;7.80;;;;;;;2.23;87.49;100837.50;5051984;28;20208;-68
2022/03/12 07:45:43;;;;;;;8.33;7.57;;;;;;;2.31;87.23;100840.25;5051933;28;20204;-68
2022/03/12 07:48:12;;;;;;;8.77;8.10;;;;;;;2.41;85.47;100827.03;5051980;28;20205;-69
2022/03/12 07:50:39;;;;;;;9.70;8.23;;;;;;;2.60;85.16;100844.38;5039252;28;20648;-70
2022/03/12 07:53:06;;;;;;;19.57;8.00;;;;;;;2.56;83.39;100832.47;5032401;28;20328;-69
2022/03/12 07:55:33;;;;;;;8.63;7.73;;;;;;;2.48;83.87;100841.56;5049855;28;20208;-69
2022/03/12 07:58:00;;;;;;;9.33;8.27;;;;;;;2.48;86.26;100837.34;5051745;28;20236;-69
2022/03/12 08:00:28;;;;;;;10.20;8.60;;;;;;;2.58;86.70;100841.81;5051670;28;20300;-69
2022/03/12 08:02:57;;;;;;;12.47;8.27;;;;;;;2.70;84.32;100840.41;5035230;28;20240;-69
2022/03/12 08:05:25;;;;;;;9.37;8.47;;;;;;;2.71;83.19;100837.91;5046654;28;20625;-70
2022/03/12 08:07:54;;;;;;;8.30;7.50;;;;;;;2.69;82.30;100834.47;5051523;28;20231;-70
2022/03/12 08:10:22;;;;;;;12.73;8.77;;;;;;;2.77;83.36;100840.59;5048715;28;20193;-69
2022/03/12 08:12:50;;;;;;;11.20;10.00;;;;;;;2.61;84.48;100835.97;5035030;28;20303;-69
2022/03/12 08:15:17;;;;;;;10.33;9.07;;;;;;;2.68;83.84;100837.84;5035776;28;20215;-70
2022/03/12 08:17:45;;;;;;;11.20;10.10;;;;;;;2.62;84.93;100837.66;5035769;28;20197;-69
2022/03/12 08:20:14;;;;;;;12.67;10.50;;;;;;;2.75;84.54;100838.84;5034114;28;20228;-69
2022/03/12 08:22:44;;;;;;;9.50;8.47;;;;;;;2.76;85.18;100846.47;5037869;28;20208;-69
2022/03/12 08:25:13;;;;;;;12.13;9.73;;;;;;;2.85;83.65;100839.09;5032768;28;20271;-67
2022/03/12 08:27:41;;;;;;;17.53;11.37;;;;;;;2.86;85.99;100848.41;5039115;28;20212;-69
2022/03/12 08:30:09;;;;;;;9.20;8.23;;;;;;;2.79;81.77;100856.66;5044570;28;20205;-70
2022/03/12 08:32:36;;;;;;;8.67;7.70;;;;;;;2.85;80.03;100856.81;5048218;28;20635;-71
2022/03/12 08:35:05;;;;;;;13.93;10.97;;;;;;;2.93;82.32;100849.41;5050930;28;20596;-69
2022/03/12 08:37:33;;;;;;;12.93;11.60;;;;;;;2.98;85.87;100842.75;5051531;28;20291;-69
2022/03/12 08:40:06;;;;;;;13.57;10.90;;;;;;;2.98;83.96;100842.75;5051418;28;20209;-68
2022/03/12 08:42:34;;;;;;;9.70;8.83;;;;;;;2.98;81.74;100843.63;5049397;28;20208;-68
2022/03/12 08:45:02;;;;;;;17.53;13.93;;;;;;;3.08;82.35;100845.56;5044575;28;20214;-68
2022/03/12 08:47:29;;;;;;;19.00;11.43;;;;;;;3.16;85.04;100844.06;5047424;28;20248;-68
2022/03/12 08:49:55;;;;;;;12.87;10.17;;;;;;;3.41;85.42;100829.38;5049383;28;20314;-69
2022/03/12 08:52:22;;;;;;;11.87;10.70;;;;;;;3.68;83.92;100842.66;5042556;28;20219;-70
2022/03/12 08:54:50;;;;;;;10.50;9.60;;;;;;;3.82;82.59;100848.84;5039508;28;20692;-70
2022/03/12 08:57:18;;;;;;;9.43;8.60;;;;;;;3.96;77.66;100852.50;5055432;28;20228;-70
2022/03/12 08:59:44;;;;;;;9.80;8.90;;;;;;;4.08;78.37;100856.97;5059301;28;20200;-70
2022/03/12 09:02:13;;;;;;;10.00;8.90;;;;;;;4.26;77.57;100857.31;5065364;28;20215;-70
2022/03/12 09:04:40;;;;;;;11.57;10.47;;;;;;;4.34;78.29;100854.91;5064520;28;20601;-68
2022/03/12 09:07:07;;;;;;;10.27;9.00;;;;;;;4.36;79.87;100856.66;5057372;28;20236;-68
2022/03/12 09:09:33;;;;;;;9.93;9.10;;;;;;;4.39;77.36;100864.34;5063089;28;20274;-70
2022/03/12 09:12:02;;;;;;;17.93;12.20;;;;;;;4.46;80.54;100866.13;5058024;28;20587;-70
2022/03/12 09:14:29;;;;;;;20.63;14.37;;;;;;;4.57;78.84;100858.72;5059356;28;20655;-70
2022/03/12 09:16:56;;;;;;;18.47;11.73;;;;;;;4.70;75.14;100860.63;5055898;28;20189;-70
2022/03/12 09:19:24;;;;;;;19.63;12.27;;;;;;;4.86;68.89;100872.75;5054612;28;21933;-70
2022/03/12 09:21:51;;;;;;;5.10;4.70;;;;;;;4.92;60.55;100866.91;5062197;28;20215;-70
2022/03/12 09:24:18;;;;;;;4.23;3.90;;;;;;;4.91;48.80;100868.59;5066805;28;20693;-67
2022/03/12 09:26:45;;;;;;;4.83;4.53;;;;;;;4.54;53.03;100863.75;5068768;28;20699;-68
2022/03/12 09:29:14;;;;;;;6.07;5.57;;;;;;;4.78;57.70;100848.94;5061616;28;20291;-68
2022/03/12 09:31:41;;;;;;;10.13;7.13;;;;;;;4.90;61.06;100849.09;5062791;28;20201;-68
2022/03/12 09:34:09;;;;;;;7.00;6.10;;;;;;;5.04;58.38;100847.63;5066402;28;20204;-68
2022/03/12 09:36:36;;;;;;;6.53;6.03;;;;;;;4.99;58.60;100854.34;5062788;28;20701;-69
2022/03/12 09:39:04;;;;;;;6.63;5.97;;;;;;;5.06;57.48;100856.13;5069724;28;20196;-71
2022/03/12 09:41:34;;;;;;;7.67;7.10;;;;;;;4.80;55.09;100841.31;5065056;28;20188;-68
2022/03/12 09:44:01;;;;;;;6.60;6.00;;;;;;;4.88;60.31;100820.25;5057642;28;20228;-69
2022/03/12 09:46:29;;;;;;;5.63;5.20;;;;;;;5.27;56.16;100841.19;5061100;28;20212;-73
2022/03/12 09:48:56;;;;;;;5.87;5.37;;;;;;;5.43;59.74;100836.34;5057463;28;20207;-69
2022/03/12 09:51:25;;;;;;;8.70;5.80;;;;;;;5.40;55.46;100843.91;5068273;28;20253;-69
2022/03/12 09:53:52;;;;;;;5.40;5.00;;;;;;;5.44;58.05;100845.66;5074180;28;20668;-69
2022/03/12 09:56:20;;;;;;;5.73;5.23;;;;;;;5.18;51.95;100843.59;5065776;28;20588;-71
2022/03/12 09:58:47;;;;;;;5.77;5.10;;;;;;;5.16;51.63;100839.34;5043207;28;20271;-69
2022/03/12 10:01:14;;;;;;;5.47;5.13;;;;;;;5.19;53.84;100842.78;5043103;28;20216;-69
2022/03/12 10:03:43;;;;;;;6.40;5.90;;;;;;;4.77;52.24;100842.13;5044868;28;20300;-69
2022/03/12 10:06:11;;;;;;;5.93;5.43;;;;;;;4.47;55.15;100821.28;5048062;28;20205;-69
2022/03/12 10:08:38;;;;;;;4.90;4.50;;;;;;;4.67;51.65;100833.50;5052666;28;20290;-69
2022/03/12 10:11:05;;;;;;;4.63;4.27;;;;;;;4.92;52.12;100821.16;5032617;28;20208;-70
2022/03/12 10:13:32;;;;;;;5.03;4.63;;;;;;;4.91;51.88;100819.47;5045823;28;20232;-69
2022/03/12 10:15:59;;;;;;;5.37;5.07;;;;;;;4.76;52.43;100825.16;5037683;28;20207;-69
2022/03/12 10:18:26;;;;;;;14.13;8.53;;;;;;;4.67;52.08;100820.78;5035629;28;20204;-69
2022/03/12 10:20:57;;;;;;;29.80;15.77;;;;;;;4.69;53.00;100824.19;5036782;28;20197;-69
2022/03/12 10:23:24;;;;;;;4.73;4.40;;;;;;;4.41;51.90;100818.66;5052415;28;20296;-69
2022/03/12 10:25:51;;;;;;;8.90;6.83;;;;;;;4.24;54.89;100823.41;5052254;28;20583;-68
2022/03/12 10:28:18;;;;;;;14.03;8.63;;;;;;;3.83;56.33;100820.13;5052080;28;20238;-69
2022/03/12 10:30:45;;;;;;;7.17;5.73;;;;;;;3.98;57.42;100820.41;5043788;28;20212;-69
2022/03/12 10:33:21;;;;;;;5.83;5.33;;;;;;;3.87;59.14;100810.88;5048469;28;20331;-69
2022/03/12 10:35:48;;;;;;;453.53;114.67;;;;;;;3.57;59.16;100813.66;5042990;28;20204;-69
2022/03/12 10:38:18;;;;;;;97.50;27.97;;;;;;;3.58;62.02;100813.72;5050948;28;20200;-68
2022/03/12 10:40:45;;;;;;;492.70;128.43;;;;;;;3.62;60.40;100804.47;5051958;28;20259;-69
2022/03/12 10:43:14;;;;;;;208.70;50.23;;;;;;;3.67;61.46;100815.56;5046737;28;20221;-69
2022/03/12 10:45:43;;;;;;;64.33;22.27;;;;;;;3.67;62.21;100800.34;5049522;28;20201;-69
2022/03/12 10:48:12;;;;;;;215.20;51.10;;;;;;;3.58;61.23;100797.63;5051879;28;20208;-72
2022/03/12 10:50:41;;;;;;;82.20;23.87;;;;;;;3.69;62.24;100808.84;5052899;28;20205;-72
2022/03/12 10:53:09;;;;;;;14.53;10.23;;;;;;;3.76;63.02;100808.13;5052829;28;20717;-74
2022/03/12 10:55:40;;;;;;;6.30;5.67;;;;;;;3.50;61.83;100800.00;5053054;28;20588;-75
2022/03/12 10:58:11;;;;;;;6.20;5.60;;;;;;;3.45;63.30;100791.47;5052658;28;20228;-71
2022/03/12 11:00:39;;;;;;;4.43;4.17;;;;;;;3.69;63.20;100781.78;5052744;28;20243;-73
2022/03/12 11:03:10;;;;;;;14.43;11.13;;;;;;;3.91;62.33;100783.06;5052718;28;20239;-72
2022/03/12 11:05:41;;;;;;;10.00;9.17;;;;;;;4.13;62.95;100790.25;5052835;28;20336;-73
2022/03/12 11:08:16;;;;;;;18.90;14.50;;;;;;;4.01;63.17;100790.00;5052720;28;20228;-77
2022/03/12 11:11:05;;;;;;;8.87;8.00;;;;;;;4.05;62.10;100781.63;5052769;28;20208;-72
2022/03/12 11:13:41;;;;;;;5.07;4.67;;;;;;;4.23;62.97;100776.88;5052746;28;20699;-71
2022/03/12 11:16:20;;;;;;;5.37;5.07;;;;;;;4.49;60.78;100779.03;5052646;28;20684;-72
2022/03/12 11:18:57;;;;;;;5.53;5.13;;;;;;;4.64;57.32;100774.19;5052526;28;20200;-73
2022/03/12 11:21:28;;;;;;;5.70;5.20;;;;;;;4.80;56.90;100781.19;5052330;28;20696;-76
2022/03/12 11:23:55;;;;;;;10.43;7.23;;;;;;;4.77;53.79;100783.69;5051599;28;20283;-74
2022/03/12 11:26:24;;;;;;;10.80;8.83;;;;;;;4.55;54.69;100784.19;5052154;28;20205;-72